Airfield :
LOGIN :

Register | Disclaimer

   EN    FR    IT 

 










Legend :    VFR   Marginal VFR   IFR   Intensive IFR   Very Intensive IFR
Visi :
Ceiling :
>= 8 km
>= 3000ft
5 to 8 km
1000 to 3000 ft
1500m to 5 km
500 to 1000 ft
800 to 1500m
200 to 500 ft
< 800m
< 200 ft
Symbols :   Thunderstorms  Fog  Heavy snow  Heavy precipitations  Wind > 20 kt
SIGMETs :     Misc.  Thunderstorms  Icing  Turbulence  Mountain Waves  Volcanic Ashes







- Airport Elevation : 39 ft


ETNH - Hohn AB

CURRENT METAR :
  • 210820Z 18004KT 9999 FEW010 BKN023 BKN140 12/10 Q1011 WHT

EXPIRED METARs :
  • 210720Z 16003KT 8000 FEW009 BKN016 11/10 Q1011 WHT
  • 210712Z 16004KT 6000 SCT009 BKN016 11/10 Q1011 WHT
  • 210643Z 16003KT 5000 BR SCT008 OVC010 11/10 Q1011 GRN
  • 210620Z 16003KT 4000 BR FEW004 OVC008 11/10 Q1011 GRN
  • 210608Z 17004KT 4000 BR FEW004 OVC008 11/10 Q1011 GRN
  • 210545Z 18004KT 3200 -DZ BR SCT004 OVC007 11/11 Q1011 YLO

TAF TAF ETNH
Valid from the 21 at 05:00 until the 21 at 17:00 UTC


210425Z 2105/2117 18006KT 9999 NSW FEW012 SCT025 BKN050
TEMPO 2105/2111 VRB03KT 2000 DZRA BKN004 BKN010 BY ETGL
No reported NOTAMs for that airfield.



MET'MAP, your aeronautical weather chart ! - Copyright ORBIFLY December 2007 - Disclaimer

ORBIFLY MET'MAP TEAM :

Programming & Development : Alexandra Zaïnal
Concept & Development : Baudouin d'Aumeries
Co-Development & Prog : Marc-Olivier Méhu
Technical & hardware support : Manuel Goepfert

Contact : metmap@orbifly.com




SOURCES & CREDITS :

   NOAA